Terminal Aerodrome Forecast
Issued by NWS

Home | Current Version | Previous Version | Text Only | Print | Product List | Glossary On
Versions: 1 2 3 4 5 6 7 8 9 10 11 12 13 14
175
FTUS42 KTAE 240522
TAFABY
TAF
KABY 240522Z 2406/2506 10009KT P6SM OVC040
      TEMPO 2411/2414 4SM BR
     FM241500 13010KT P6SM SCT050 BKN250
     FM250000 12008KT P6SM BKN050=

USA.gov is the U.S. government's official web portal to all federal, state and local government web resources and services.